sensor_id;sensor_type;location;lat;lon;timestamp;P1;durP1;ratioP1;P2;durP2;ratioP2
70301;SDS011;57706;56.326;43.882;2022-10-17T00:00:21;9.27;;;4.20;;
70301;SDS011;57706;56.326;43.882;2022-10-17T00:02:47;10.98;;;5.95;;
70301;SDS011;57706;56.326;43.882;2022-10-17T00:05:13;6.78;;;4.57;;
70301;SDS011;57706;56.326;43.882;2022-10-17T00:07:39;7.60;;;4.90;;
70301;SDS011;57706;56.326;43.882;2022-10-17T00:10:06;7.00;;;3.47;;
70301;SDS011;57706;56.326;43.882;2022-10-17T00:12:32;8.57;;;4.65;;
70301;SDS011;57706;56.326;43.882;2022-10-17T00:14:59;7.32;;;5.10;;
70301;SDS011;57706;56.326;43.882;2022-10-17T00:17:27;9.55;;;4.63;;
70301;SDS011;57706;56.326;43.882;2022-10-17T00:19:53;8.77;;;4.30;;
70301;SDS011;57706;56.326;43.882;2022-10-17T00:22:18;9.20;;;4.50;;
70301;SDS011;57706;56.326;43.882;2022-10-17T00:24:44;7.95;;;4.13;;
70301;SDS011;57706;56.326;43.882;2022-10-17T00:27:10;6.95;;;4.50;;
70301;SDS011;57706;56.326;43.882;2022-10-17T00:29:36;8.52;;;4.40;;
70301;SDS011;57706;56.326;43.882;2022-10-17T00:32:01;9.18;;;4.63;;
70301;SDS011;57706;56.326;43.882;2022-10-17T00:34:28;8.15;;;4.63;;
70301;SDS011;57706;56.326;43.882;2022-10-17T00:36:55;9.73;;;4.35;;
70301;SDS011;57706;56.326;43.882;2022-10-17T00:39:21;9.30;;;4.85;;
70301;SDS011;57706;56.326;43.882;2022-10-17T00:42:05;8.27;;;4.35;;
70301;SDS011;57706;56.326;43.882;2022-10-17T00:46:58;7.65;;;5.53;;
70301;SDS011;57706;56.326;43.882;2022-10-17T00:49:30;8.23;;;4.95;;
70301;SDS011;57706;56.326;43.882;2022-10-17T00:52:09;9.10;;;4.53;;
70301;SDS011;57706;56.326;43.882;2022-10-17T00:54:38;10.95;;;4.88;;
70301;SDS011;57706;56.326;43.882;2022-10-17T00:57:07;5.85;;;4.03;;
70301;SDS011;57706;56.326;43.882;2022-10-17T00:59:35;7.60;;;4.47;;
70301;SDS011;57706;56.326;43.882;2022-10-17T01:02:08;13.70;;;5.72;;
70301;SDS011;57706;56.326;43.882;2022-10-17T01:04:40;6.68;;;4.18;;
70301;SDS011;57706;56.326;43.882;2022-10-17T01:07:08;9.73;;;4.72;;
70301;SDS011;57706;56.326;43.882;2022-10-17T01:09:53;9.18;;;4.35;;
70301;SDS011;57706;56.326;43.882;2022-10-17T01:12:36;10.45;;;4.57;;
70301;SDS011;57706;56.326;43.882;2022-10-17T01:15:12;7.20;;;4.20;;
70301;SDS011;57706;56.326;43.882;2022-10-17T01:29:59;9.70;;;4.25;;
70301;SDS011;57706;56.326;43.882;2022-10-17T01:32:36;8.45;;;4.50;;
70301;SDS011;57706;56.326;43.882;2022-10-17T01:35:15;9.20;;;4.68;;
70301;SDS011;57706;56.326;43.882;2022-10-17T01:37:52;10.90;;;5.10;;
70301;SDS011;57706;56.326;43.882;2022-10-17T01:40:33;10.32;;;5.18;;
70301;SDS011;57706;56.326;43.882;2022-10-17T01:43:29;8.88;;;4.38;;
70301;SDS011;57706;56.326;43.882;2022-10-17T01:47:05;6.95;;;4.53;;
70301;SDS011;57706;56.326;43.882;2022-10-17T01:48:59;6.88;;;4.07;;
70301;SDS011;57706;56.326;43.882;2022-10-17T01:51:28;8.13;;;5.15;;
70301;SDS011;57706;56.326;43.882;2022-10-17T01:54:43;9.13;;;4.18;;
70301;SDS011;57706;56.326;43.882;2022-10-17T01:57:14;10.20;;;4.53;;
70301;SDS011;57706;56.326;43.882;2022-10-17T01:59:53;10.55;;;4.63;;
70301;SDS011;57706;56.326;43.882;2022-10-17T02:02:20;8.68;;;5.00;;
70301;SDS011;57706;56.326;43.882;2022-10-17T02:04:48;8.93;;;5.57;;
70301;SDS011;57706;56.326;43.882;2022-10-17T02:07:35;10.48;;;4.85;;
70301;SDS011;57706;56.326;43.882;2022-10-17T02:10:01;8.95;;;6.03;;
70301;SDS011;57706;56.326;43.882;2022-10-17T02:12:36;10.65;;;5.43;;
70301;SDS011;57706;56.326;43.882;2022-10-17T02:20:48;11.23;;;5.95;;
70301;SDS011;57706;56.326;43.882;2022-10-17T02:29:07;12.10;;;7.20;;
70301;SDS011;57706;56.326;43.882;2022-10-17T02:31:45;9.23;;;5.38;;
70301;SDS011;57706;56.326;43.882;2022-10-17T02:34:17;10.55;;;5.88;;
70301;SDS011;57706;56.326;43.882;2022-10-17T02:36:51;10.38;;;5.22;;
70301;SDS011;57706;56.326;43.882;2022-10-17T02:39:21;12.20;;;5.45;;
70301;SDS011;57706;56.326;43.882;2022-10-17T02:41:49;15.10;;;6.13;;
70301;SDS011;57706;56.326;43.882;2022-10-17T02:44:17;12.50;;;6.38;;
70301;SDS011;57706;56.326;43.882;2022-10-17T02:46:47;12.00;;;5.40;;
70301;SDS011;57706;56.326;43.882;2022-10-17T02:49:21;12.02;;;5.82;;
70301;SDS011;57706;56.326;43.882;2022-10-17T02:52:11;13.13;;;6.18;;
70301;SDS011;57706;56.326;43.882;2022-10-17T02:55:29;18.08;;;6.43;;
70301;SDS011;57706;56.326;43.882;2022-10-17T02:57:42;10.98;;;4.85;;
70301;SDS011;57706;56.326;43.882;2022-10-17T03:00:10;16.73;;;5.70;;
70301;SDS011;57706;56.326;43.882;2022-10-17T03:02:45;11.10;;;6.68;;
70301;SDS011;57706;56.326;43.882;2022-10-17T03:05:16;12.50;;;7.18;;
70301;SDS011;57706;56.326;43.882;2022-10-17T03:07:44;9.90;;;5.05;;
70301;SDS011;57706;56.326;43.882;2022-10-17T03:10:09;11.10;;;5.65;;
70301;SDS011;57706;56.326;43.882;2022-10-17T03:12:38;15.43;;;5.88;;
70301;SDS011;57706;56.326;43.882;2022-10-17T03:15:04;11.70;;;6.30;;
70301;SDS011;57706;56.326;43.882;2022-10-17T03:17:30;11.35;;;5.30;;
70301;SDS011;57706;56.326;43.882;2022-10-17T03:19:57;11.90;;;6.32;;
70301;SDS011;57706;56.326;43.882;2022-10-17T03:22:23;10.38;;;5.05;;
70301;SDS011;57706;56.326;43.882;2022-10-17T03:24:49;8.82;;;5.60;;
70301;SDS011;57706;56.326;43.882;2022-10-17T03:27:15;10.48;;;4.80;;
70301;SDS011;57706;56.326;43.882;2022-10-17T03:29:43;14.00;;;6.00;;
70301;SDS011;57706;56.326;43.882;2022-10-17T03:32:09;9.10;;;5.45;;
70301;SDS011;57706;56.326;43.882;2022-10-17T03:34:35;12.05;;;6.60;;
70301;SDS011;57706;56.326;43.882;2022-10-17T03:37:01;9.50;;;4.78;;
70301;SDS011;57706;56.326;43.882;2022-10-17T03:39:29;10.35;;;5.20;;
70301;SDS011;57706;56.326;43.882;2022-10-17T03:41:55;8.77;;;4.90;;
70301;SDS011;57706;56.326;43.882;2022-10-17T03:44:21;12.23;;;5.82;;
70301;SDS011;57706;56.326;43.882;2022-10-17T03:46:47;14.50;;;7.03;;
70301;SDS011;57706;56.326;43.882;2022-10-17T03:49:13;14.25;;;5.85;;
70301;SDS011;57706;56.326;43.882;2022-10-17T03:51:40;12.30;;;5.90;;
70301;SDS011;57706;56.326;43.882;2022-10-17T03:54:10;15.30;;;5.35;;
70301;SDS011;57706;56.326;43.882;2022-10-17T03:56:36;22.30;;;6.53;;
70301;SDS011;57706;56.326;43.882;2022-10-17T03:59:20;14.95;;;5.40;;
70301;SDS011;57706;56.326;43.882;2022-10-17T04:01:56;13.35;;;6.60;;
70301;SDS011;57706;56.326;43.882;2022-10-17T04:04:22;15.50;;;6.22;;
70301;SDS011;57706;56.326;43.882;2022-10-17T04:06:48;12.38;;;5.90;;
70301;SDS011;57706;56.326;43.882;2022-10-17T04:09:14;14.85;;;6.82;;
70301;SDS011;57706;56.326;43.882;2022-10-17T04:12:00;10.07;;;5.82;;
70301;SDS011;57706;56.326;43.882;2022-10-17T04:14:26;11.50;;;6.30;;
70301;SDS011;57706;56.326;43.882;2022-10-17T04:16:53;10.38;;;6.20;;
70301;SDS011;57706;56.326;43.882;2022-10-17T04:19:20;14.25;;;7.45;;
70301;SDS011;57706;56.326;43.882;2022-10-17T04:21:46;11.85;;;6.03;;
70301;SDS011;57706;56.326;43.882;2022-10-17T04:24:13;11.07;;;5.57;;
70301;SDS011;57706;56.326;43.882;2022-10-17T04:27:01;13.95;;;6.35;;
70301;SDS011;57706;56.326;43.882;2022-10-17T04:29:30;14.20;;;5.63;;
70301;SDS011;57706;56.326;43.882;2022-10-17T04:32:22;11.25;;;6.55;;
70301;SDS011;57706;56.326;43.882;2022-10-17T04:35:07;14.38;;;6.32;;
70301;SDS011;57706;56.326;43.882;2022-10-17T04:37:33;10.45;;;6.15;;
70301;SDS011;57706;56.326;43.882;2022-10-17T04:40:05;14.73;;;7.40;;
70301;SDS011;57706;56.326;43.882;2022-10-17T04:42:32;20.35;;;8.32;;
70301;SDS011;57706;56.326;43.882;2022-10-17T04:44:58;18.50;;;8.00;;
70301;SDS011;57706;56.326;43.882;2022-10-17T04:47:25;23.45;;;7.20;;
70301;SDS011;57706;56.326;43.882;2022-10-17T04:49:51;14.77;;;7.78;;
70301;SDS011;57706;56.326;43.882;2022-10-17T04:52:17;15.15;;;7.85;;
70301;SDS011;57706;56.326;43.882;2022-10-17T04:54:46;17.40;;;7.95;;
70301;SDS011;57706;56.326;43.882;2022-10-17T04:57:12;16.85;;;6.88;;
70301;SDS011;57706;56.326;43.882;2022-10-17T04:59:41;19.75;;;7.78;;
70301;SDS011;57706;56.326;43.882;2022-10-17T05:02:16;13.98;;;6.88;;
70301;SDS011;57706;56.326;43.882;2022-10-17T05:04:42;13.40;;;6.97;;
70301;SDS011;57706;56.326;43.882;2022-10-17T05:07:09;11.85;;;6.45;;
70301;SDS011;57706;56.326;43.882;2022-10-17T05:09:44;12.70;;;6.47;;
70301;SDS011;57706;56.326;43.882;2022-10-17T05:12:10;13.75;;;6.30;;
70301;SDS011;57706;56.326;43.882;2022-10-17T05:14:39;12.60;;;5.65;;
70301;SDS011;57706;56.326;43.882;2022-10-17T05:17:05;14.98;;;6.55;;
70301;SDS011;57706;56.326;43.882;2022-10-17T05:19:31;17.85;;;6.47;;
70301;SDS011;57706;56.326;43.882;2022-10-17T05:21:57;14.00;;;6.38;;
70301;SDS011;57706;56.326;43.882;2022-10-17T05:24:23;14.70;;;6.90;;
70301;SDS011;57706;56.326;43.882;2022-10-17T05:26:49;29.38;;;12.05;;
70301;SDS011;57706;56.326;43.882;2022-10-17T05:29:16;10.38;;;6.28;;
70301;SDS011;57706;56.326;43.882;2022-10-17T05:31:48;15.90;;;8.15;;
70301;SDS011;57706;56.326;43.882;2022-10-17T05:34:14;12.57;;;7.47;;
70301;SDS011;57706;56.326;43.882;2022-10-17T05:36:40;18.60;;;7.32;;
70301;SDS011;57706;56.326;43.882;2022-10-17T05:39:07;18.95;;;9.32;;
70301;SDS011;57706;56.326;43.882;2022-10-17T05:41:34;15.90;;;7.57;;
70301;SDS011;57706;56.326;43.882;2022-10-17T05:44:00;18.98;;;9.40;;
70301;SDS011;57706;56.326;43.882;2022-10-17T05:46:48;14.98;;;8.70;;
70301;SDS011;57706;56.326;43.882;2022-10-17T05:49:15;19.67;;;8.63;;
70301;SDS011;57706;56.326;43.882;2022-10-17T05:51:41;16.77;;;7.95;;
70301;SDS011;57706;56.326;43.882;2022-10-17T05:54:07;15.05;;;7.80;;
70301;SDS011;57706;56.326;43.882;2022-10-17T05:56:34;27.02;;;8.48;;
70301;SDS011;57706;56.326;43.882;2022-10-17T05:59:00;18.60;;;8.10;;
70301;SDS011;57706;56.326;43.882;2022-10-17T06:01:44;16.15;;;7.47;;
70301;SDS011;57706;56.326;43.882;2022-10-17T06:04:28;16.23;;;7.35;;
70301;SDS011;57706;56.326;43.882;2022-10-17T06:06:55;13.80;;;6.88;;
70301;SDS011;57706;56.326;43.882;2022-10-17T06:09:21;18.48;;;7.97;;
70301;SDS011;57706;56.326;43.882;2022-10-17T06:11:50;14.98;;;6.97;;
70301;SDS011;57706;56.326;43.882;2022-10-17T06:14:16;19.85;;;7.45;;
70301;SDS011;57706;56.326;43.882;2022-10-17T06:16:42;16.13;;;7.15;;
70301;SDS011;57706;56.326;43.882;2022-10-17T06:19:08;13.63;;;7.40;;
70301;SDS011;57706;56.326;43.882;2022-10-17T06:21:35;14.65;;;8.07;;
70301;SDS011;57706;56.326;43.882;2022-10-17T06:24:21;13.45;;;7.47;;
70301;SDS011;57706;56.326;43.882;2022-10-17T06:26:50;17.17;;;8.27;;
70301;SDS011;57706;56.326;43.882;2022-10-17T06:29:17;18.20;;;9.02;;
70301;SDS011;57706;56.326;43.882;2022-10-17T06:31:49;17.52;;;8.43;;
70301;SDS011;57706;56.326;43.882;2022-10-17T06:34:15;19.92;;;8.63;;
70301;SDS011;57706;56.326;43.882;2022-10-17T06:36:41;15.02;;;8.20;;
70301;SDS011;57706;56.326;43.882;2022-10-17T06:39:08;15.32;;;7.95;;
70301;SDS011;57706;56.326;43.882;2022-10-17T06:41:46;16.80;;;7.82;;
70301;SDS011;57706;56.326;43.882;2022-10-17T06:44:16;20.08;;;8.20;;
70301;SDS011;57706;56.326;43.882;2022-10-17T06:46:55;18.55;;;8.40;;
70301;SDS011;57706;56.326;43.882;2022-10-17T06:49:41;20.52;;;8.35;;
70301;SDS011;57706;56.326;43.882;2022-10-17T06:52:25;21.52;;;7.95;;
70301;SDS011;57706;56.326;43.882;2022-10-17T06:55:20;15.10;;;6.32;;
70301;SDS011;57706;56.326;43.882;2022-10-17T06:57:55;17.73;;;7.53;;
70301;SDS011;57706;56.326;43.882;2022-10-17T07:00:41;24.38;;;7.88;;
70301;SDS011;57706;56.326;43.882;2022-10-17T07:03:08;15.27;;;7.10;;
70301;SDS011;57706;56.326;43.882;2022-10-17T07:05:34;21.90;;;7.10;;
70301;SDS011;57706;56.326;43.882;2022-10-17T07:08:01;13.02;;;7.07;;
70301;SDS011;57706;56.326;43.882;2022-10-17T07:10:28;16.40;;;7.30;;
70301;SDS011;57706;56.326;43.882;2022-10-17T07:13:13;14.10;;;7.00;;
70301;SDS011;57706;56.326;43.882;2022-10-17T07:15:39;13.40;;;6.20;;
70301;SDS011;57706;56.326;43.882;2022-10-17T07:18:05;13.77;;;6.07;;
70301;SDS011;57706;56.326;43.882;2022-10-17T07:20:31;14.30;;;6.22;;
70301;SDS011;57706;56.326;43.882;2022-10-17T07:22:57;9.32;;;5.78;;
70301;SDS011;57706;56.326;43.882;2022-10-17T07:25:23;14.00;;;5.68;;
70301;SDS011;57706;56.326;43.882;2022-10-17T07:27:53;16.00;;;6.90;;
70301;SDS011;57706;56.326;43.882;2022-10-17T07:30:20;21.83;;;6.15;;
70301;SDS011;57706;56.326;43.882;2022-10-17T07:33:00;11.82;;;5.93;;
70301;SDS011;57706;56.326;43.882;2022-10-17T07:35:26;12.30;;;5.25;;
70301;SDS011;57706;56.326;43.882;2022-10-17T07:37:52;17.23;;;6.20;;
70301;SDS011;57706;56.326;43.882;2022-10-17T07:40:19;8.27;;;5.22;;
70301;SDS011;57706;56.326;43.882;2022-10-17T07:42:45;14.75;;;5.18;;
70301;SDS011;57706;56.326;43.882;2022-10-17T07:45:12;10.32;;;5.20;;
70301;SDS011;57706;56.326;43.882;2022-10-17T07:47:38;9.90;;;4.97;;
70301;SDS011;57706;56.326;43.882;2022-10-17T07:50:07;9.13;;;5.10;;
70301;SDS011;57706;56.326;43.882;2022-10-17T07:52:33;7.75;;;5.50;;
70301;SDS011;57706;56.326;43.882;2022-10-17T07:54:59;13.35;;;6.43;;
70301;SDS011;57706;56.326;43.882;2022-10-17T07:57:25;18.13;;;5.47;;
70301;SDS011;57706;56.326;43.882;2022-10-17T07:59:50;15.77;;;5.78;;
70301;SDS011;57706;56.326;43.882;2022-10-17T08:02:22;9.35;;;4.75;;
70301;SDS011;57706;56.326;43.882;2022-10-17T08:04:49;12.00;;;4.88;;
70301;SDS011;57706;56.326;43.882;2022-10-17T08:07:16;13.82;;;4.28;;
70301;SDS011;57706;56.326;43.882;2022-10-17T08:09:42;9.23;;;4.35;;
70301;SDS011;57706;56.326;43.882;2022-10-17T08:12:08;11.07;;;5.50;;
70301;SDS011;57706;56.326;43.882;2022-10-17T08:14:35;12.43;;;4.85;;
70301;SDS011;57706;56.326;43.882;2022-10-17T08:17:00;10.13;;;4.70;;
70301;SDS011;57706;56.326;43.882;2022-10-17T08:19:26;11.27;;;4.93;;
70301;SDS011;57706;56.326;43.882;2022-10-17T08:21:52;13.40;;;5.10;;
70301;SDS011;57706;56.326;43.882;2022-10-17T08:24:19;29.83;;;5.45;;
70301;SDS011;57706;56.326;43.882;2022-10-17T08:26:45;8.07;;;4.60;;
70301;SDS011;57706;56.326;43.882;2022-10-17T08:29:14;12.35;;;4.88;;
70301;SDS011;57706;56.326;43.882;2022-10-17T08:31:59;10.32;;;4.50;;
70301;SDS011;57706;56.326;43.882;2022-10-17T08:34:25;12.07;;;5.30;;
70301;SDS011;57706;56.326;43.882;2022-10-17T08:36:50;14.45;;;4.85;;
70301;SDS011;57706;56.326;43.882;2022-10-17T08:39:16;9.50;;;5.05;;
70301;SDS011;57706;56.326;43.882;2022-10-17T08:46:52;10.88;;;5.28;;
70301;SDS011;57706;56.326;43.882;2022-10-17T08:49:37;11.30;;;5.45;;
70301;SDS011;57706;56.326;43.882;2022-10-17T08:55:48;7.13;;;4.50;;
70301;SDS011;57706;56.326;43.882;2022-10-17T08:58:09;11.93;;;4.90;;
70301;SDS011;57706;56.326;43.882;2022-10-17T09:00:39;13.40;;;4.22;;
70301;SDS011;57706;56.326;43.882;2022-10-17T09:06:30;9.43;;;4.78;;
70301;SDS011;57706;56.326;43.882;2022-10-17T09:14:26;11.05;;;4.20;;
70301;SDS011;57706;56.326;43.882;2022-10-17T09:17:14;11.85;;;4.53;;
70301;SDS011;57706;56.326;43.882;2022-10-17T09:19:57;14.20;;;4.55;;
70301;SDS011;57706;56.326;43.882;2022-10-17T09:22:33;8.57;;;4.47;;
70301;SDS011;57706;56.326;43.882;2022-10-17T09:25:09;14.30;;;5.05;;
70301;SDS011;57706;56.326;43.882;2022-10-17T09:27:42;13.48;;;4.28;;
70301;SDS011;57706;56.326;43.882;2022-10-17T09:33:20;10.75;;;4.47;;
70301;SDS011;57706;56.326;43.882;2022-10-17T09:35:52;10.60;;;4.75;;
70301;SDS011;57706;56.326;43.882;2022-10-17T09:38:21;8.57;;;3.95;;
70301;SDS011;57706;56.326;43.882;2022-10-17T09:40:59;10.48;;;4.53;;
70301;SDS011;57706;56.326;43.882;2022-10-17T09:43:26;23.10;;;5.00;;
70301;SDS011;57706;56.326;43.882;2022-10-17T09:46:02;6.60;;;4.00;;
70301;SDS011;57706;56.326;43.882;2022-10-17T09:48:43;12.85;;;5.22;;
70301;SDS011;57706;56.326;43.882;2022-10-17T09:51:13;12.32;;;4.43;;
70301;SDS011;57706;56.326;43.882;2022-10-17T09:53:41;15.35;;;4.43;;
70301;SDS011;57706;56.326;43.882;2022-10-17T09:56:12;13.35;;;5.05;;
70301;SDS011;57706;56.326;43.882;2022-10-17T10:04:10;7.68;;;3.55;;
70301;SDS011;57706;56.326;43.882;2022-10-17T10:06:36;9.07;;;4.25;;
70301;SDS011;57706;56.326;43.882;2022-10-17T10:09:04;10.00;;;4.72;;
70301;SDS011;57706;56.326;43.882;2022-10-17T10:14:36;10.93;;;4.88;;
70301;SDS011;57706;56.326;43.882;2022-10-17T10:17:25;10.02;;;4.03;;
70301;SDS011;57706;56.326;43.882;2022-10-17T10:23:04;9.82;;;4.53;;
70301;SDS011;57706;56.326;43.882;2022-10-17T10:25:58;10.40;;;4.20;;
70301;SDS011;57706;56.326;43.882;2022-10-17T10:28:28;6.47;;;4.28;;
70301;SDS011;57706;56.326;43.882;2022-10-17T10:30:58;9.73;;;4.32;;
70301;SDS011;57706;56.326;43.882;2022-10-17T10:33:27;9.55;;;4.13;;
70301;SDS011;57706;56.326;43.882;2022-10-17T10:35:56;8.77;;;5.03;;
70301;SDS011;57706;56.326;43.882;2022-10-17T10:38:26;8.18;;;4.70;;
70301;SDS011;57706;56.326;43.882;2022-10-17T10:41:11;8.95;;;4.90;;
70301;SDS011;57706;56.326;43.882;2022-10-17T10:43:42;10.88;;;4.80;;
70301;SDS011;57706;56.326;43.882;2022-10-17T10:46:18;5.70;;;3.80;;
70301;SDS011;57706;56.326;43.882;2022-10-17T10:54:09;13.98;;;4.40;;
70301;SDS011;57706;56.326;43.882;2022-10-17T10:56:41;9.30;;;4.90;;
70301;SDS011;57706;56.326;43.882;2022-10-17T10:59:30;8.25;;;4.80;;
70301;SDS011;57706;56.326;43.882;2022-10-17T11:04:54;8.60;;;4.25;;
70301;SDS011;57706;56.326;43.882;2022-10-17T11:07:34;9.93;;;3.88;;
70301;SDS011;57706;56.326;43.882;2022-10-17T11:10:13;8.48;;;4.53;;
70301;SDS011;57706;56.326;43.882;2022-10-17T11:17:56;7.90;;;3.58;;
70301;SDS011;57706;56.326;43.882;2022-10-17T11:25:39;8.45;;;3.40;;
70301;SDS011;57706;56.326;43.882;2022-10-17T11:28:11;7.03;;;3.25;;
70301;SDS011;57706;56.326;43.882;2022-10-17T11:30:41;6.72;;;4.03;;
70301;SDS011;57706;56.326;43.882;2022-10-17T11:33:17;8.93;;;3.70;;
70301;SDS011;57706;56.326;43.882;2022-10-17T11:35:49;7.47;;;4.40;;
70301;SDS011;57706;56.326;43.882;2022-10-17T11:38:20;8.57;;;4.70;;
70301;SDS011;57706;56.326;43.882;2022-10-17T11:40:56;8.55;;;5.10;;
70301;SDS011;57706;56.326;43.882;2022-10-17T11:45:54;7.32;;;3.97;;
70301;SDS011;57706;56.326;43.882;2022-10-17T11:51:28;6.25;;;3.28;;
70301;SDS011;57706;56.326;43.882;2022-10-17T11:54:03;8.73;;;4.20;;
70301;SDS011;57706;56.326;43.882;2022-10-17T12:02:03;6.15;;;3.58;;
70301;SDS011;57706;56.326;43.882;2022-10-17T12:10:28;9.27;;;4.40;;
70301;SDS011;57706;56.326;43.882;2022-10-17T12:13:49;11.05;;;3.60;;
70301;SDS011;57706;56.326;43.882;2022-10-17T12:18:43;14.63;;;5.57;;
70301;SDS011;57706;56.326;43.882;2022-10-17T12:21:09;14.48;;;6.22;;
70301;SDS011;57706;56.326;43.882;2022-10-17T12:23:35;9.30;;;5.75;;
70301;SDS011;57706;56.326;43.882;2022-10-17T12:26:07;11.30;;;5.88;;
70301;SDS011;57706;56.326;43.882;2022-10-17T12:28:43;11.55;;;6.18;;
70301;SDS011;57706;56.326;43.882;2022-10-17T12:44:50;13.07;;;5.88;;
70301;SDS011;57706;56.326;43.882;2022-10-17T12:49:42;13.43;;;8.10;;
70301;SDS011;57706;56.326;43.882;2022-10-17T12:52:19;12.88;;;7.88;;
70301;SDS011;57706;56.326;43.882;2022-10-17T12:55:08;12.98;;;6.93;;
70301;SDS011;57706;56.326;43.882;2022-10-17T13:00:26;17.00;;;8.15;;
70301;SDS011;57706;56.326;43.882;2022-10-17T13:03:04;12.77;;;8.02;;
70301;SDS011;57706;56.326;43.882;2022-10-17T13:05:55;12.75;;;6.82;;
70301;SDS011;57706;56.326;43.882;2022-10-17T13:08:28;13.70;;;6.03;;
70301;SDS011;57706;56.326;43.882;2022-10-17T13:10:57;11.25;;;7.32;;
70301;SDS011;57706;56.326;43.882;2022-10-17T13:19:00;13.07;;;5.40;;
70301;SDS011;57706;56.326;43.882;2022-10-17T13:21:27;12.02;;;6.55;;
70301;SDS011;57706;56.326;43.882;2022-10-17T13:23:54;9.43;;;5.70;;
70301;SDS011;57706;56.326;43.882;2022-10-17T13:29:01;15.10;;;5.65;;
70301;SDS011;57706;56.326;43.882;2022-10-17T13:31:39;11.57;;;7.55;;
70301;SDS011;57706;56.326;43.882;2022-10-17T13:34:39;11.55;;;6.15;;
70301;SDS011;57706;56.326;43.882;2022-10-17T13:36:59;12.82;;;6.20;;
70301;SDS011;57706;56.326;43.882;2022-10-17T13:39:37;14.43;;;6.57;;
70301;SDS011;57706;56.326;43.882;2022-10-17T13:42:06;12.48;;;7.60;;
70301;SDS011;57706;56.326;43.882;2022-10-17T13:44:50;10.23;;;6.28;;
70301;SDS011;57706;56.326;43.882;2022-10-17T13:47:26;12.07;;;6.90;;
70301;SDS011;57706;56.326;43.882;2022-10-17T13:49:54;14.05;;;8.10;;
70301;SDS011;57706;56.326;43.882;2022-10-17T13:52:23;14.98;;;7.88;;
70301;SDS011;57706;56.326;43.882;2022-10-17T13:54:51;12.70;;;7.32;;
70301;SDS011;57706;56.326;43.882;2022-10-17T13:57:28;13.77;;;6.70;;
70301;SDS011;57706;56.326;43.882;2022-10-17T14:00:16;9.32;;;6.25;;
70301;SDS011;57706;56.326;43.882;2022-10-17T14:02:44;13.95;;;7.63;;
70301;SDS011;57706;56.326;43.882;2022-10-17T14:07:43;12.02;;;6.35;;
70301;SDS011;57706;56.326;43.882;2022-10-17T14:12:47;11.30;;;6.85;;
70301;SDS011;57706;56.326;43.882;2022-10-17T14:15:14;15.10;;;7.45;;
70301;SDS011;57706;56.326;43.882;2022-10-17T14:17:41;14.88;;;6.70;;
70301;SDS011;57706;56.326;43.882;2022-10-17T14:20:16;12.13;;;7.45;;
70301;SDS011;57706;56.326;43.882;2022-10-17T14:22:44;13.85;;;8.02;;
70301;SDS011;57706;56.326;43.882;2022-10-17T14:25:27;12.13;;;6.38;;
70301;SDS011;57706;56.326;43.882;2022-10-17T14:27:55;11.15;;;6.93;;
70301;SDS011;57706;56.326;43.882;2022-10-17T14:30:32;11.77;;;5.93;;
70301;SDS011;57706;56.326;43.882;2022-10-17T14:33:01;14.20;;;7.53;;
70301;SDS011;57706;56.326;43.882;2022-10-17T14:35:29;17.58;;;8.48;;
70301;SDS011;57706;56.326;43.882;2022-10-17T14:37:57;18.80;;;10.40;;
70301;SDS011;57706;56.326;43.882;2022-10-17T14:40:26;15.02;;;8.40;;
70301;SDS011;57706;56.326;43.882;2022-10-17T14:42:54;23.42;;;10.32;;
70301;SDS011;57706;56.326;43.882;2022-10-17T14:45:24;19.08;;;9.88;;
70301;SDS011;57706;56.326;43.882;2022-10-17T14:47:51;21.75;;;9.55;;
70301;SDS011;57706;56.326;43.882;2022-10-17T14:50:21;22.55;;;10.77;;
70301;SDS011;57706;56.326;43.882;2022-10-17T14:55:55;19.95;;;9.68;;
70301;SDS011;57706;56.326;43.882;2022-10-17T14:58:24;18.25;;;7.13;;
70301;SDS011;57706;56.326;43.882;2022-10-17T15:00:54;16.27;;;8.98;;
70301;SDS011;57706;56.326;43.882;2022-10-17T15:03:22;14.18;;;7.65;;
70301;SDS011;57706;56.326;43.882;2022-10-17T15:05:48;15.63;;;8.60;;
70301;SDS011;57706;56.326;43.882;2022-10-17T15:08:18;15.55;;;8.77;;
70301;SDS011;57706;56.326;43.882;2022-10-17T15:10:47;17.80;;;9.65;;
70301;SDS011;57706;56.326;43.882;2022-10-17T15:13:14;15.35;;;8.65;;
70301;SDS011;57706;56.326;43.882;2022-10-17T15:15:40;13.52;;;7.43;;
70301;SDS011;57706;56.326;43.882;2022-10-17T15:18:09;15.70;;;8.60;;
70301;SDS011;57706;56.326;43.882;2022-10-17T15:20:36;18.85;;;9.45;;
70301;SDS011;57706;56.326;43.882;2022-10-17T15:23:03;14.30;;;7.57;;
70301;SDS011;57706;56.326;43.882;2022-10-17T15:25:29;17.02;;;8.25;;
70301;SDS011;57706;56.326;43.882;2022-10-17T15:27:56;17.77;;;10.10;;
70301;SDS011;57706;56.326;43.882;2022-10-17T15:30:24;19.40;;;9.68;;
70301;SDS011;57706;56.326;43.882;2022-10-17T15:32:52;15.75;;;8.13;;
70301;SDS011;57706;56.326;43.882;2022-10-17T15:35:19;14.05;;;8.27;;
70301;SDS011;57706;56.326;43.882;2022-10-17T15:37:45;17.83;;;10.85;;
70301;SDS011;57706;56.326;43.882;2022-10-17T15:40:33;15.43;;;9.07;;
70301;SDS011;57706;56.326;43.882;2022-10-17T15:42:57;18.88;;;8.70;;
70301;SDS011;57706;56.326;43.882;2022-10-17T15:45:23;21.63;;;10.55;;
70301;SDS011;57706;56.326;43.882;2022-10-17T15:47:50;14.02;;;8.77;;
70301;SDS011;57706;56.326;43.882;2022-10-17T15:50:18;14.93;;;9.35;;
70301;SDS011;57706;56.326;43.882;2022-10-17T15:52:44;14.95;;;8.07;;
70301;SDS011;57706;56.326;43.882;2022-10-17T15:55:11;14.98;;;9.25;;
70301;SDS011;57706;56.326;43.882;2022-10-17T15:57:39;15.35;;;8.75;;
70301;SDS011;57706;56.326;43.882;2022-10-17T16:00:11;15.68;;;9.13;;
70301;SDS011;57706;56.326;43.882;2022-10-17T16:02:45;14.98;;;8.70;;
70301;SDS011;57706;56.326;43.882;2022-10-17T16:05:23;12.75;;;6.60;;
70301;SDS011;57706;56.326;43.882;2022-10-17T16:07:50;14.05;;;8.00;;
70301;SDS011;57706;56.326;43.882;2022-10-17T16:10:20;15.00;;;8.60;;
70301;SDS011;57706;56.326;43.882;2022-10-17T16:12:47;16.75;;;8.75;;
70301;SDS011;57706;56.326;43.882;2022-10-17T16:15:24;15.88;;;8.77;;
70301;SDS011;57706;56.326;43.882;2022-10-17T16:17:51;13.88;;;7.65;;
70301;SDS011;57706;56.326;43.882;2022-10-17T16:20:20;13.15;;;7.53;;
70301;SDS011;57706;56.326;43.882;2022-10-17T16:22:47;13.32;;;7.80;;
70301;SDS011;57706;56.326;43.882;2022-10-17T16:27:44;14.40;;;7.90;;
70301;SDS011;57706;56.326;43.882;2022-10-17T16:30:11;16.10;;;9.05;;
70301;SDS011;57706;56.326;43.882;2022-10-17T16:32:37;16.83;;;9.65;;
70301;SDS011;57706;56.326;43.882;2022-10-17T16:35:04;14.90;;;8.50;;
70301;SDS011;57706;56.326;43.882;2022-10-17T16:37:31;14.88;;;9.15;;
70301;SDS011;57706;56.326;43.882;2022-10-17T16:39:57;15.05;;;9.48;;
70301;SDS011;57706;56.326;43.882;2022-10-17T16:42:23;21.17;;;9.95;;
70301;SDS011;57706;56.326;43.882;2022-10-17T16:44:49;17.50;;;10.45;;
70301;SDS011;57706;56.326;43.882;2022-10-17T16:47:15;13.75;;;8.57;;
70301;SDS011;57706;56.326;43.882;2022-10-17T16:49:42;21.58;;;12.13;;
70301;SDS011;57706;56.326;43.882;2022-10-17T16:52:08;19.35;;;10.88;;
70301;SDS011;57706;56.326;43.882;2022-10-17T16:54:34;26.25;;;14.75;;
70301;SDS011;57706;56.326;43.882;2022-10-17T16:57:00;17.45;;;9.30;;
70301;SDS011;57706;56.326;43.882;2022-10-17T16:59:27;15.68;;;9.57;;